sensor_id;sensor_type;location;lat;lon;timestamp;P1;durP1;ratioP1;P2;durP2;ratioP2
1693;SDS011;844;47.058;15.472;2022-12-29T00:01:17;14.00;;;12.50;;
1693;SDS011;844;47.058;15.472;2022-12-29T00:03:47;14.90;;;13.10;;
1693;SDS011;844;47.058;15.472;2022-12-29T00:06:20;16.20;;;12.97;;
1693;SDS011;844;47.058;15.472;2022-12-29T00:08:50;19.27;;;12.60;;
1693;SDS011;844;47.058;15.472;2022-12-29T00:11:20;13.80;;;11.60;;
1693;SDS011;844;47.058;15.472;2022-12-29T00:13:52;13.30;;;11.63;;
1693;SDS011;844;47.058;15.472;2022-12-29T00:16:45;14.77;;;12.13;;
1693;SDS011;844;47.058;15.472;2022-12-29T00:19:16;12.80;;;11.23;;
1693;SDS011;844;47.058;15.472;2022-12-29T00:22:05;11.87;;;10.63;;
1693;SDS011;844;47.058;15.472;2022-12-29T00:24:54;11.10;;;10.00;;
1693;SDS011;844;47.058;15.472;2022-12-29T00:27:44;16.30;;;11.27;;
1693;SDS011;844;47.058;15.472;2022-12-29T00:30:33;11.40;;;9.43;;
1693;SDS011;844;47.058;15.472;2022-12-29T00:33:25;13.20;;;9.47;;
1693;SDS011;844;47.058;15.472;2022-12-29T00:36:15;10.60;;;9.10;;
1693;SDS011;844;47.058;15.472;2022-12-29T00:38:49;11.67;;;9.13;;
1693;SDS011;844;47.058;15.472;2022-12-29T00:41:39;10.80;;;9.70;;
1693;SDS011;844;47.058;15.472;2022-12-29T00:44:26;13.43;;;9.83;;
1693;SDS011;844;47.058;15.472;2022-12-29T00:46:56;9.70;;;7.73;;
1693;SDS011;844;47.058;15.472;2022-12-29T00:49:29;9.37;;;8.07;;
1693;SDS011;844;47.058;15.472;2022-12-29T00:52:01;9.83;;;8.83;;
1693;SDS011;844;47.058;15.472;2022-12-29T00:54:35;10.40;;;8.40;;
1693;SDS011;844;47.058;15.472;2022-12-29T00:57:07;11.60;;;9.30;;
1693;SDS011;844;47.058;15.472;2022-12-29T00:59:39;12.67;;;9.30;;
1693;SDS011;844;47.058;15.472;2022-12-29T01:02:11;14.53;;;9.80;;
1693;SDS011;844;47.058;15.472;2022-12-29T01:04:41;9.27;;;8.37;;
1693;SDS011;844;47.058;15.472;2022-12-29T01:07:12;10.00;;;8.80;;
1693;SDS011;844;47.058;15.472;2022-12-29T01:09:46;10.30;;;8.60;;
1693;SDS011;844;47.058;15.472;2022-12-29T01:12:33;10.60;;;9.37;;
1693;SDS011;844;47.058;15.472;2022-12-29T01:15:10;8.00;;;7.30;;
1693;SDS011;844;47.058;15.472;2022-12-29T01:17:42;13.00;;;9.53;;
1693;SDS011;844;47.058;15.472;2022-12-29T01:20:12;13.20;;;9.83;;
1693;SDS011;844;47.058;15.472;2022-12-29T01:22:43;14.10;;;10.33;;
1693;SDS011;844;47.058;15.472;2022-12-29T01:25:15;17.27;;;10.03;;
1693;SDS011;844;47.058;15.472;2022-12-29T01:27:46;13.83;;;10.90;;
1693;SDS011;844;47.058;15.472;2022-12-29T01:30:16;13.83;;;10.63;;
1693;SDS011;844;47.058;15.472;2022-12-29T01:32:46;11.27;;;9.90;;
1693;SDS011;844;47.058;15.472;2022-12-29T01:35:16;12.90;;;10.03;;
1693;SDS011;844;47.058;15.472;2022-12-29T01:37:47;13.87;;;10.90;;
1693;SDS011;844;47.058;15.472;2022-12-29T01:40:20;15.10;;;11.57;;
1693;SDS011;844;47.058;15.472;2022-12-29T01:42:51;12.03;;;9.73;;
1693;SDS011;844;47.058;15.472;2022-12-29T01:45:21;14.83;;;9.30;;
1693;SDS011;844;47.058;15.472;2022-12-29T01:47:53;13.17;;;9.33;;
1693;SDS011;844;47.058;15.472;2022-12-29T01:50:28;11.83;;;10.23;;
1693;SDS011;844;47.058;15.472;2022-12-29T01:53:00;13.37;;;9.30;;
1693;SDS011;844;47.058;15.472;2022-12-29T01:55:37;15.03;;;9.90;;
1693;SDS011;844;47.058;15.472;2022-12-29T01:58:10;9.47;;;8.47;;
1693;SDS011;844;47.058;15.472;2022-12-29T02:00:42;9.73;;;8.03;;
1693;SDS011;844;47.058;15.472;2022-12-29T02:03:12;8.83;;;7.17;;
1693;SDS011;844;47.058;15.472;2022-12-29T02:05:44;8.87;;;7.83;;
1693;SDS011;844;47.058;15.472;2022-12-29T02:08:19;7.23;;;6.53;;
1693;SDS011;844;47.058;15.472;2022-12-29T02:10:52;7.53;;;6.83;;
1693;SDS011;844;47.058;15.472;2022-12-29T02:13:24;9.87;;;7.23;;
1693;SDS011;844;47.058;15.472;2022-12-29T02:15:56;10.63;;;8.50;;
1693;SDS011;844;47.058;15.472;2022-12-29T02:18:35;10.03;;;8.30;;
1693;SDS011;844;47.058;15.472;2022-12-29T02:24:37;7.33;;;6.63;;
1693;SDS011;844;47.058;15.472;2022-12-29T02:27:35;12.07;;;8.03;;
1693;SDS011;844;47.058;15.472;2022-12-29T02:33:33;10.83;;;8.27;;
1693;SDS011;844;47.058;15.472;2022-12-29T02:36:12;7.50;;;6.50;;
1693;SDS011;844;47.058;15.472;2022-12-29T02:38:51;10.50;;;8.03;;
1693;SDS011;844;47.058;15.472;2022-12-29T02:41:30;8.10;;;7.27;;
1693;SDS011;844;47.058;15.472;2022-12-29T02:44:04;10.10;;;7.93;;
1693;SDS011;844;47.058;15.472;2022-12-29T02:46:42;9.93;;;7.87;;
1693;SDS011;844;47.058;15.472;2022-12-29T02:49:18;7.67;;;6.73;;
1693;SDS011;844;47.058;15.472;2022-12-29T02:51:54;10.90;;;7.83;;
1693;SDS011;844;47.058;15.472;2022-12-29T02:54:27;9.07;;;8.10;;
1693;SDS011;844;47.058;15.472;2022-12-29T02:57:10;10.50;;;7.37;;
1693;SDS011;844;47.058;15.472;2022-12-29T02:59:44;10.30;;;7.57;;
1693;SDS011;844;47.058;15.472;2022-12-29T03:02:20;9.10;;;6.67;;
1693;SDS011;844;47.058;15.472;2022-12-29T03:05:05;9.43;;;8.00;;
1693;SDS011;844;47.058;15.472;2022-12-29T03:08:04;12.53;;;7.67;;
1693;SDS011;844;47.058;15.472;2022-12-29T03:10:41;7.73;;;6.93;;
1693;SDS011;844;47.058;15.472;2022-12-29T03:13:20;10.20;;;7.57;;
1693;SDS011;844;47.058;15.472;2022-12-29T03:16:13;8.53;;;7.57;;
1693;SDS011;844;47.058;15.472;2022-12-29T03:18:52;8.63;;;7.00;;
1693;SDS011;844;47.058;15.472;2022-12-29T03:21:31;10.37;;;8.03;;
1693;SDS011;844;47.058;15.472;2022-12-29T03:24:22;8.00;;;7.27;;
1693;SDS011;844;47.058;15.472;2022-12-29T03:26:55;10.83;;;7.60;;
1693;SDS011;844;47.058;15.472;2022-12-29T03:29:27;10.53;;;7.47;;
1693;SDS011;844;47.058;15.472;2022-12-29T03:32:00;9.00;;;8.10;;
1693;SDS011;844;47.058;15.472;2022-12-29T03:34:31;10.20;;;8.60;;
1693;SDS011;844;47.058;15.472;2022-12-29T03:37:06;10.20;;;7.80;;
1693;SDS011;844;47.058;15.472;2022-12-29T03:39:40;9.50;;;8.50;;
1693;SDS011;844;47.058;15.472;2022-12-29T03:42:13;10.50;;;8.87;;
1693;SDS011;844;47.058;15.472;2022-12-29T03:44:45;13.20;;;9.13;;
1693;SDS011;844;47.058;15.472;2022-12-29T03:47:16;9.27;;;7.63;;
1693;SDS011;844;47.058;15.472;2022-12-29T03:49:46;10.77;;;8.80;;
1693;SDS011;844;47.058;15.472;2022-12-29T03:52:18;9.53;;;7.90;;
1693;SDS011;844;47.058;15.472;2022-12-29T03:54:48;10.80;;;8.87;;
1693;SDS011;844;47.058;15.472;2022-12-29T03:57:18;13.43;;;9.17;;
1693;SDS011;844;47.058;15.472;2022-12-29T03:59:48;9.40;;;8.50;;
1693;SDS011;844;47.058;15.472;2022-12-29T04:02:18;10.50;;;9.40;;
1693;SDS011;844;47.058;15.472;2022-12-29T04:04:48;11.63;;;9.37;;
1693;SDS011;844;47.058;15.472;2022-12-29T04:07:20;9.00;;;8.07;;
1693;SDS011;844;47.058;15.472;2022-12-29T04:09:51;9.83;;;8.73;;
1693;SDS011;844;47.058;15.472;2022-12-29T04:12:21;11.57;;;10.37;;
1693;SDS011;844;47.058;15.472;2022-12-29T04:14:51;11.70;;;9.63;;
1693;SDS011;844;47.058;15.472;2022-12-29T04:17:21;13.57;;;9.13;;
1693;SDS011;844;47.058;15.472;2022-12-29T04:19:52;13.87;;;9.07;;
1693;SDS011;844;47.058;15.472;2022-12-29T04:22:46;9.53;;;8.07;;
1693;SDS011;844;47.058;15.472;2022-12-29T04:25:16;10.40;;;7.87;;
1693;SDS011;844;47.058;15.472;2022-12-29T04:27:47;9.80;;;7.43;;
1693;SDS011;844;47.058;15.472;2022-12-29T04:30:17;8.13;;;7.40;;
1693;SDS011;844;47.058;15.472;2022-12-29T04:32:47;9.80;;;7.63;;
1693;SDS011;844;47.058;15.472;2022-12-29T04:35:17;8.53;;;6.67;;
1693;SDS011;844;47.058;15.472;2022-12-29T04:37:50;11.50;;;7.40;;
1693;SDS011;844;47.058;15.472;2022-12-29T04:40:20;9.17;;;8.00;;
1693;SDS011;844;47.058;15.472;2022-12-29T04:42:51;8.27;;;7.47;;
1693;SDS011;844;47.058;15.472;2022-12-29T04:45:20;10.40;;;8.20;;
1693;SDS011;844;47.058;15.472;2022-12-29T04:47:52;11.67;;;8.87;;
1693;SDS011;844;47.058;15.472;2022-12-29T04:50:22;11.67;;;10.53;;
1693;SDS011;844;47.058;15.472;2022-12-29T04:52:54;9.73;;;8.77;;
1693;SDS011;844;47.058;15.472;2022-12-29T04:55:24;10.47;;;9.30;;
1693;SDS011;844;47.058;15.472;2022-12-29T04:57:54;10.10;;;9.10;;
1693;SDS011;844;47.058;15.472;2022-12-29T05:00:24;10.17;;;8.87;;
1693;SDS011;844;47.058;15.472;2022-12-29T05:02:55;11.90;;;10.70;;
1693;SDS011;844;47.058;15.472;2022-12-29T05:05:25;11.70;;;10.07;;
1693;SDS011;844;47.058;15.472;2022-12-29T05:07:57;11.00;;;7.70;;
1693;SDS011;844;47.058;15.472;2022-12-29T05:10:27;12.40;;;11.10;;
1693;SDS011;844;47.058;15.472;2022-12-29T05:12:58;10.10;;;9.10;;
1693;SDS011;844;47.058;15.472;2022-12-29T05:15:28;10.40;;;9.33;;
1693;SDS011;844;47.058;15.472;2022-12-29T05:17:58;10.10;;;9.13;;
1693;SDS011;844;47.058;15.472;2022-12-29T05:20:28;11.60;;;7.30;;
1693;SDS011;844;47.058;15.472;2022-12-29T05:23:01;9.63;;;8.43;;
1693;SDS011;844;47.058;15.472;2022-12-29T05:25:32;8.73;;;7.13;;
1693;SDS011;844;47.058;15.472;2022-12-29T05:28:02;10.30;;;7.10;;
1693;SDS011;844;47.058;15.472;2022-12-29T05:30:32;9.77;;;7.17;;
1693;SDS011;844;47.058;15.472;2022-12-29T05:33:03;8.23;;;7.43;;
1693;SDS011;844;47.058;15.472;2022-12-29T05:35:39;7.83;;;6.87;;
1693;SDS011;844;47.058;15.472;2022-12-29T05:38:11;9.67;;;8.27;;
1693;SDS011;844;47.058;15.472;2022-12-29T05:40:41;15.93;;;8.47;;
1693;SDS011;844;47.058;15.472;2022-12-29T05:43:12;9.70;;;8.30;;
1693;SDS011;844;47.058;15.472;2022-12-29T05:45:47;8.00;;;7.30;;
1693;SDS011;844;47.058;15.472;2022-12-29T05:48:18;15.13;;;6.93;;
1693;SDS011;844;47.058;15.472;2022-12-29T05:50:48;8.40;;;7.47;;
1693;SDS011;844;47.058;15.472;2022-12-29T05:53:21;8.70;;;7.50;;
1693;SDS011;844;47.058;15.472;2022-12-29T05:55:51;10.40;;;7.30;;
1693;SDS011;844;47.058;15.472;2022-12-29T05:58:22;10.43;;;7.60;;
1693;SDS011;844;47.058;15.472;2022-12-29T06:00:52;9.23;;;8.10;;
1693;SDS011;844;47.058;15.472;2022-12-29T06:03:22;9.60;;;8.13;;
1693;SDS011;844;47.058;15.472;2022-12-29T06:05:53;9.53;;;8.50;;
1693;SDS011;844;47.058;15.472;2022-12-29T06:08:26;9.03;;;8.17;;
1693;SDS011;844;47.058;15.472;2022-12-29T06:10:56;8.97;;;7.50;;
1693;SDS011;844;47.058;15.472;2022-12-29T06:13:26;9.53;;;7.70;;
1693;SDS011;844;47.058;15.472;2022-12-29T06:15:56;9.63;;;8.57;;
1693;SDS011;844;47.058;15.472;2022-12-29T06:18:26;9.43;;;7.37;;
1693;SDS011;844;47.058;15.472;2022-12-29T06:20:59;9.80;;;8.10;;
1693;SDS011;844;47.058;15.472;2022-12-29T06:23:31;11.13;;;7.53;;
1693;SDS011;844;47.058;15.472;2022-12-29T06:26:02;10.03;;;8.60;;
1693;SDS011;844;47.058;15.472;2022-12-29T06:28:35;8.23;;;7.13;;
1693;SDS011;844;47.058;15.472;2022-12-29T06:31:08;11.70;;;7.67;;
1693;SDS011;844;47.058;15.472;2022-12-29T06:33:40;9.57;;;7.60;;
1693;SDS011;844;47.058;15.472;2022-12-29T06:36:15;6.93;;;6.13;;
1693;SDS011;844;47.058;15.472;2022-12-29T06:38:47;10.77;;;7.53;;
1693;SDS011;844;47.058;15.472;2022-12-29T06:41:20;9.40;;;7.73;;
1693;SDS011;844;47.058;15.472;2022-12-29T06:43:58;7.87;;;6.97;;
1693;SDS011;844;47.058;15.472;2022-12-29T06:46:28;8.80;;;6.57;;
1693;SDS011;844;47.058;15.472;2022-12-29T06:48:58;7.37;;;6.33;;
1693;SDS011;844;47.058;15.472;2022-12-29T06:51:28;9.30;;;7.80;;
1693;SDS011;844;47.058;15.472;2022-12-29T06:54:00;9.80;;;8.03;;
1693;SDS011;844;47.058;15.472;2022-12-29T06:56:31;10.80;;;8.30;;
1693;SDS011;844;47.058;15.472;2022-12-29T06:59:01;9.33;;;8.10;;
1693;SDS011;844;47.058;15.472;2022-12-29T07:01:31;8.20;;;6.47;;
1693;SDS011;844;47.058;15.472;2022-12-29T07:04:03;13.17;;;7.80;;
1693;SDS011;844;47.058;15.472;2022-12-29T07:06:34;7.23;;;6.53;;
1693;SDS011;844;47.058;15.472;2022-12-29T07:09:06;10.80;;;7.67;;
1693;SDS011;844;47.058;15.472;2022-12-29T07:11:36;12.00;;;9.10;;
1693;SDS011;844;47.058;15.472;2022-12-29T07:14:06;11.00;;;8.73;;
1693;SDS011;844;47.058;15.472;2022-12-29T07:16:36;10.63;;;7.60;;
1693;SDS011;844;47.058;15.472;2022-12-29T07:19:08;12.70;;;8.17;;
1693;SDS011;844;47.058;15.472;2022-12-29T07:21:40;11.90;;;6.73;;
1693;SDS011;844;47.058;15.472;2022-12-29T07:24:14;9.40;;;7.70;;
1693;SDS011;844;47.058;15.472;2022-12-29T07:26:45;10.03;;;7.77;;
1693;SDS011;844;47.058;15.472;2022-12-29T07:29:15;10.33;;;8.30;;
1693;SDS011;844;47.058;15.472;2022-12-29T07:31:45;7.33;;;6.60;;
1693;SDS011;844;47.058;15.472;2022-12-29T07:34:15;8.10;;;7.23;;
1693;SDS011;844;47.058;15.472;2022-12-29T07:36:45;10.03;;;9.03;;
1693;SDS011;844;47.058;15.472;2022-12-29T07:39:18;11.67;;;10.60;;
1693;SDS011;844;47.058;15.472;2022-12-29T07:41:47;10.00;;;9.10;;
1693;SDS011;844;47.058;15.472;2022-12-29T07:44:19;11.23;;;8.60;;
1693;SDS011;844;47.058;15.472;2022-12-29T07:46:49;12.13;;;10.23;;
1693;SDS011;844;47.058;15.472;2022-12-29T07:49:24;10.83;;;9.20;;
1693;SDS011;844;47.058;15.472;2022-12-29T07:51:56;10.80;;;9.80;;
1693;SDS011;844;47.058;15.472;2022-12-29T07:54:29;11.40;;;9.93;;
1693;SDS011;844;47.058;15.472;2022-12-29T07:56:58;10.47;;;9.40;;
1693;SDS011;844;47.058;15.472;2022-12-29T07:59:28;10.60;;;9.57;;
1693;SDS011;844;47.058;15.472;2022-12-29T08:02:00;10.60;;;9.50;;
1693;SDS011;844;47.058;15.472;2022-12-29T08:04:30;12.13;;;10.93;;
1693;SDS011;844;47.058;15.472;2022-12-29T08:07:02;14.30;;;12.80;;
1693;SDS011;844;47.058;15.472;2022-12-29T08:09:34;17.97;;;14.60;;
1693;SDS011;844;47.058;15.472;2022-12-29T08:12:04;18.23;;;13.27;;
1693;SDS011;844;47.058;15.472;2022-12-29T08:14:35;13.97;;;12.67;;
1693;SDS011;844;47.058;15.472;2022-12-29T08:17:05;22.30;;;13.33;;
1693;SDS011;844;47.058;15.472;2022-12-29T08:19:36;13.07;;;11.87;;
1693;SDS011;844;47.058;15.472;2022-12-29T08:22:07;16.40;;;13.43;;
1693;SDS011;844;47.058;15.472;2022-12-29T08:24:39;14.70;;;12.80;;
1693;SDS011;844;47.058;15.472;2022-12-29T08:27:09;15.13;;;13.37;;
1693;SDS011;844;47.058;15.472;2022-12-29T08:29:47;17.10;;;12.97;;
1693;SDS011;844;47.058;15.472;2022-12-29T08:32:17;12.70;;;11.57;;
1693;SDS011;844;47.058;15.472;2022-12-29T08:34:48;12.90;;;11.60;;
1693;SDS011;844;47.058;15.472;2022-12-29T08:37:18;15.33;;;13.43;;
1693;SDS011;844;47.058;15.472;2022-12-29T08:39:58;14.27;;;12.27;;
1693;SDS011;844;47.058;15.472;2022-12-29T08:42:31;14.53;;;12.87;;
1693;SDS011;844;47.058;15.472;2022-12-29T08:45:01;13.60;;;12.20;;
1693;SDS011;844;47.058;15.472;2022-12-29T08:47:33;16.33;;;14.63;;
1693;SDS011;844;47.058;15.472;2022-12-29T08:50:03;14.33;;;12.93;;
1693;SDS011;844;47.058;15.472;2022-12-29T08:52:36;17.10;;;15.20;;
1693;SDS011;844;47.058;15.472;2022-12-29T08:55:09;16.50;;;12.63;;
1693;SDS011;844;47.058;15.472;2022-12-29T08:57:39;13.47;;;12.20;;
1693;SDS011;844;47.058;15.472;2022-12-29T09:00:10;13.87;;;10.73;;
1693;SDS011;844;47.058;15.472;2022-12-29T09:02:43;12.80;;;11.40;;
1693;SDS011;844;47.058;15.472;2022-12-29T09:05:14;13.70;;;11.37;;
1693;SDS011;844;47.058;15.472;2022-12-29T09:07:44;13.07;;;9.93;;
1693;SDS011;844;47.058;15.472;2022-12-29T09:10:17;13.43;;;11.80;;
1693;SDS011;844;47.058;15.472;2022-12-29T09:12:47;13.90;;;11.33;;
1693;SDS011;844;47.058;15.472;2022-12-29T09:15:17;13.77;;;11.87;;
1693;SDS011;844;47.058;15.472;2022-12-29T09:17:48;13.70;;;12.37;;
1693;SDS011;844;47.058;15.472;2022-12-29T09:20:19;12.43;;;10.80;;
1693;SDS011;844;47.058;15.472;2022-12-29T09:22:49;12.03;;;10.83;;
1693;SDS011;844;47.058;15.472;2022-12-29T09:25:21;14.20;;;11.23;;
1693;SDS011;844;47.058;15.472;2022-12-29T09:27:52;15.23;;;12.87;;
1693;SDS011;844;47.058;15.472;2022-12-29T09:30:22;13.43;;;11.77;;
1693;SDS011;844;47.058;15.472;2022-12-29T09:32:53;14.53;;;12.03;;
1693;SDS011;844;47.058;15.472;2022-12-29T09:35:24;14.37;;;12.97;;
1693;SDS011;844;47.058;15.472;2022-12-29T09:37:54;15.00;;;11.97;;
1693;SDS011;844;47.058;15.472;2022-12-29T09:40:27;13.20;;;11.80;;
1693;SDS011;844;47.058;15.472;2022-12-29T09:43:07;18.87;;;14.13;;
1693;SDS011;844;47.058;15.472;2022-12-29T09:46:04;15.47;;;13.80;;
1693;SDS011;844;47.058;15.472;2022-12-29T09:48:41;14.10;;;12.60;;
1693;SDS011;844;47.058;15.472;2022-12-29T09:51:17;14.70;;;13.30;;
1693;SDS011;844;47.058;15.472;2022-12-29T09:53:51;15.20;;;12.67;;
1693;SDS011;844;47.058;15.472;2022-12-29T09:56:26;17.53;;;14.23;;
1693;SDS011;844;47.058;15.472;2022-12-29T09:58:59;15.10;;;13.60;;
1693;SDS011;844;47.058;15.472;2022-12-29T10:01:32;19.10;;;15.63;;
1693;SDS011;844;47.058;15.472;2022-12-29T10:04:06;18.37;;;15.97;;
1693;SDS011;844;47.058;15.472;2022-12-29T10:06:38;18.63;;;14.37;;
1693;SDS011;844;47.058;15.472;2022-12-29T10:09:32;24.20;;;15.57;;
1693;SDS011;844;47.058;15.472;2022-12-29T10:12:10;18.70;;;14.60;;
1693;SDS011;844;47.058;15.472;2022-12-29T10:14:53;17.33;;;15.47;;
1693;SDS011;844;47.058;15.472;2022-12-29T10:17:34;17.60;;;13.93;;
1693;SDS011;844;47.058;15.472;2022-12-29T10:20:17;19.97;;;16.20;;
1693;SDS011;844;47.058;15.472;2022-12-29T10:23:04;18.67;;;16.43;;
1693;SDS011;844;47.058;15.472;2022-12-29T10:25:43;18.70;;;16.80;;
1693;SDS011;844;47.058;15.472;2022-12-29T10:28:17;17.87;;;15.63;;
1693;SDS011;844;47.058;15.472;2022-12-29T10:30:50;17.83;;;16.03;;
1693;SDS011;844;47.058;15.472;2022-12-29T10:33:21;21.20;;;16.77;;
1693;SDS011;844;47.058;15.472;2022-12-29T10:35:53;16.60;;;14.90;;
1693;SDS011;844;47.058;15.472;2022-12-29T10:38:25;20.57;;;17.93;;
1693;SDS011;844;47.058;15.472;2022-12-29T10:40:57;22.10;;;17.67;;
1693;SDS011;844;47.058;15.472;2022-12-29T10:43:33;22.30;;;16.27;;
1693;SDS011;844;47.058;15.472;2022-12-29T10:46:06;20.40;;;16.50;;
1693;SDS011;844;47.058;15.472;2022-12-29T10:48:40;18.00;;;16.17;;
1693;SDS011;844;47.058;15.472;2022-12-29T10:51:16;18.90;;;16.90;;
1693;SDS011;844;47.058;15.472;2022-12-29T10:53:51;23.07;;;16.47;;
1693;SDS011;844;47.058;15.472;2022-12-29T10:56:30;19.03;;;16.40;;
1693;SDS011;844;47.058;15.472;2022-12-29T10:59:06;22.57;;;15.70;;
1693;SDS011;844;47.058;15.472;2022-12-29T11:01:42;17.03;;;14.73;;
1693;SDS011;844;47.058;15.472;2022-12-29T11:04:25;22.20;;;16.33;;
1693;SDS011;844;47.058;15.472;2022-12-29T11:07:02;16.70;;;14.07;;
1693;SDS011;844;47.058;15.472;2022-12-29T11:09:41;16.97;;;15.30;;
1693;SDS011;844;47.058;15.472;2022-12-29T11:12:21;13.17;;;11.87;;
1693;SDS011;844;47.058;15.472;2022-12-29T11:17:46;14.07;;;12.67;;
1693;SDS011;844;47.058;15.472;2022-12-29T11:20:28;15.43;;;13.83;;
1693;SDS011;844;47.058;15.472;2022-12-29T11:23:00;15.33;;;12.50;;
1693;SDS011;844;47.058;15.472;2022-12-29T11:25:31;17.60;;;14.17;;
1693;SDS011;844;47.058;15.472;2022-12-29T11:28:02;17.47;;;14.00;;
1693;SDS011;844;47.058;15.472;2022-12-29T11:30:44;20.00;;;14.30;;
1693;SDS011;844;47.058;15.472;2022-12-29T11:33:29;17.37;;;14.00;;
1693;SDS011;844;47.058;15.472;2022-12-29T11:36:01;14.60;;;13.10;;
1693;SDS011;844;47.058;15.472;2022-12-29T11:38:35;16.13;;;13.20;;
1693;SDS011;844;47.058;15.472;2022-12-29T11:41:10;15.87;;;13.97;;
1693;SDS011;844;47.058;15.472;2022-12-29T11:43:43;19.00;;;14.90;;
1693;SDS011;844;47.058;15.472;2022-12-29T11:46:18;15.27;;;13.73;;
1693;SDS011;844;47.058;15.472;2022-12-29T11:48:50;17.27;;;15.30;;
1693;SDS011;844;47.058;15.472;2022-12-29T11:51:21;17.43;;;15.37;;
1693;SDS011;844;47.058;15.472;2022-12-29T11:53:53;14.43;;;12.93;;
1693;SDS011;844;47.058;15.472;2022-12-29T11:56:33;23.73;;;14.03;;
1693;SDS011;844;47.058;15.472;2022-12-29T12:01:55;13.10;;;10.80;;
1693;SDS011;844;47.058;15.472;2022-12-29T12:04:27;13.60;;;12.20;;
1693;SDS011;844;47.058;15.472;2022-12-29T12:07:00;17.43;;;11.40;;
1693;SDS011;844;47.058;15.472;2022-12-29T12:09:35;16.77;;;11.00;;
1693;SDS011;844;47.058;15.472;2022-12-29T12:12:10;11.13;;;10.00;;
1693;SDS011;844;47.058;15.472;2022-12-29T12:14:53;9.60;;;8.70;;
1693;SDS011;844;47.058;15.472;2022-12-29T12:17:29;9.93;;;8.40;;
1693;SDS011;844;47.058;15.472;2022-12-29T12:20:06;11.47;;;10.20;;
1693;SDS011;844;47.058;15.472;2022-12-29T12:22:45;9.50;;;8.50;;
1693;SDS011;844;47.058;15.472;2022-12-29T12:25:21;8.77;;;6.50;;
1693;SDS011;844;47.058;15.472;2022-12-29T12:27:56;6.73;;;5.90;;
1693;SDS011;844;47.058;15.472;2022-12-29T12:30:29;10.07;;;6.73;;
1693;SDS011;844;47.058;15.472;2022-12-29T12:33:04;8.33;;;7.33;;
1693;SDS011;844;47.058;15.472;2022-12-29T12:35:40;7.83;;;6.30;;
1693;SDS011;844;47.058;15.472;2022-12-29T12:38:20;7.30;;;6.57;;
1693;SDS011;844;47.058;15.472;2022-12-29T12:41:01;7.00;;;6.30;;
1693;SDS011;844;47.058;15.472;2022-12-29T12:43:46;6.63;;;5.80;;
1693;SDS011;844;47.058;15.472;2022-12-29T12:46:25;4.80;;;4.30;;
1693;SDS011;844;47.058;15.472;2022-12-29T12:52:14;9.37;;;6.43;;
1693;SDS011;844;47.058;15.472;2022-12-29T12:54:59;8.50;;;5.70;;
1693;SDS011;844;47.058;15.472;2022-12-29T12:57:45;9.03;;;6.00;;
1693;SDS011;844;47.058;15.472;2022-12-29T13:00:18;6.17;;;4.93;;
1693;SDS011;844;47.058;15.472;2022-12-29T13:02:55;6.60;;;5.07;;
1693;SDS011;844;47.058;15.472;2022-12-29T13:08:30;9.60;;;6.30;;
1693;SDS011;844;47.058;15.472;2022-12-29T13:11:12;8.50;;;5.50;;
1693;SDS011;844;47.058;15.472;2022-12-29T13:16:41;8.50;;;5.63;;
1693;SDS011;844;47.058;15.472;2022-12-29T13:19:17;4.97;;;4.47;;
1693;SDS011;844;47.058;15.472;2022-12-29T13:22:01;5.97;;;4.40;;
1693;SDS011;844;47.058;15.472;2022-12-29T13:24:41;5.30;;;4.80;;
1693;SDS011;844;47.058;15.472;2022-12-29T13:27:20;5.47;;;4.50;;
1693;SDS011;844;47.058;15.472;2022-12-29T13:30:04;6.93;;;4.60;;
1693;SDS011;844;47.058;15.472;2022-12-29T13:32:42;6.73;;;5.63;;
1693;SDS011;844;47.058;15.472;2022-12-29T13:35:26;6.13;;;5.27;;
1693;SDS011;844;47.058;15.472;2022-12-29T13:38:09;6.47;;;5.23;;
1693;SDS011;844;47.058;15.472;2022-12-29T13:40:43;9.10;;;6.33;;
1693;SDS011;844;47.058;15.472;2022-12-29T13:43:16;6.00;;;5.00;;
1693;SDS011;844;47.058;15.472;2022-12-29T13:45:50;9.37;;;5.00;;
1693;SDS011;844;47.058;15.472;2022-12-29T13:48:28;6.40;;;5.57;;
1693;SDS011;844;47.058;15.472;2022-12-29T13:51:04;8.50;;;6.47;;
1693;SDS011;844;47.058;15.472;2022-12-29T13:53:39;6.43;;;5.73;;
1693;SDS011;844;47.058;15.472;2022-12-29T13:56:19;9.70;;;5.97;;
1693;SDS011;844;47.058;15.472;2022-12-29T13:58:54;6.20;;;5.60;;
1693;SDS011;844;47.058;15.472;2022-12-29T14:01:27;9.47;;;7.30;;
1693;SDS011;844;47.058;15.472;2022-12-29T14:04:11;11.30;;;8.67;;
1693;SDS011;844;47.058;15.472;2022-12-29T14:06:43;9.97;;;6.77;;
1693;SDS011;844;47.058;15.472;2022-12-29T14:09:32;13.30;;;7.20;;
1693;SDS011;844;47.058;15.472;2022-12-29T14:12:19;9.90;;;6.67;;
1693;SDS011;844;47.058;15.472;2022-12-29T14:14:50;12.90;;;8.90;;
1693;SDS011;844;47.058;15.472;2022-12-29T14:17:20;10.80;;;7.70;;
1693;SDS011;844;47.058;15.472;2022-12-29T14:19:52;10.73;;;7.07;;
1693;SDS011;844;47.058;15.472;2022-12-29T14:22:25;7.60;;;6.73;;
1693;SDS011;844;47.058;15.472;2022-12-29T14:25:02;7.93;;;6.43;;
1693;SDS011;844;47.058;15.472;2022-12-29T14:27:43;8.10;;;7.17;;
1693;SDS011;844;47.058;15.472;2022-12-29T14:33:15;6.93;;;6.17;;
1693;SDS011;844;47.058;15.472;2022-12-29T14:35:47;8.33;;;7.30;;
1693;SDS011;844;47.058;15.472;2022-12-29T14:38:21;14.67;;;7.60;;
1693;SDS011;844;47.058;15.472;2022-12-29T14:41:14;10.97;;;8.57;;
1693;SDS011;844;47.058;15.472;2022-12-29T14:43:58;10.57;;;7.20;;
1693;SDS011;844;47.058;15.472;2022-12-29T14:46:55;9.13;;;6.13;;
1693;SDS011;844;47.058;15.472;2022-12-29T14:49:29;12.83;;;8.60;;
1693;SDS011;844;47.058;15.472;2022-12-29T14:52:05;12.63;;;8.53;;
1693;SDS011;844;47.058;15.472;2022-12-29T14:54:42;9.37;;;7.30;;
1693;SDS011;844;47.058;15.472;2022-12-29T14:57:30;7.87;;;6.07;;
1693;SDS011;844;47.058;15.472;2022-12-29T15:00:12;11.50;;;6.47;;
1693;SDS011;844;47.058;15.472;2022-12-29T15:02:47;7.67;;;6.80;;
1693;SDS011;844;47.058;15.472;2022-12-29T15:05:23;7.43;;;5.43;;
1693;SDS011;844;47.058;15.472;2022-12-29T15:07:57;7.80;;;6.70;;
1693;SDS011;844;47.058;15.472;2022-12-29T15:10:32;10.80;;;6.10;;
1693;SDS011;844;47.058;15.472;2022-12-29T15:13:14;7.83;;;6.40;;
1693;SDS011;844;47.058;15.472;2022-12-29T15:15:45;9.10;;;7.60;;
1693;SDS011;844;47.058;15.472;2022-12-29T15:18:25;9.83;;;7.13;;
1693;SDS011;844;47.058;15.472;2022-12-29T15:20:57;8.80;;;7.13;;
1693;SDS011;844;47.058;15.472;2022-12-29T15:23:29;8.47;;;7.27;;
1693;SDS011;844;47.058;15.472;2022-12-29T15:26:01;10.50;;;7.90;;
1693;SDS011;844;47.058;15.472;2022-12-29T15:28:39;10.47;;;9.47;;
1693;SDS011;844;47.058;15.472;2022-12-29T15:31:11;9.30;;;8.27;;
1693;SDS011;844;47.058;15.472;2022-12-29T15:33:43;10.03;;;8.90;;
1693;SDS011;844;47.058;15.472;2022-12-29T15:36:17;11.60;;;10.50;;
1693;SDS011;844;47.058;15.472;2022-12-29T15:38:49;11.77;;;9.57;;
1693;SDS011;844;47.058;15.472;2022-12-29T15:41:24;15.73;;;11.70;;
1693;SDS011;844;47.058;15.472;2022-12-29T15:44:02;16.80;;;13.40;;
1693;SDS011;844;47.058;15.472;2022-12-29T15:46:38;16.70;;;13.53;;
1693;SDS011;844;47.058;15.472;2022-12-29T15:49:08;17.13;;;14.00;;
1693;SDS011;844;47.058;15.472;2022-12-29T15:51:40;19.07;;;14.07;;
1693;SDS011;844;47.058;15.472;2022-12-29T15:54:13;16.37;;;13.73;;
1693;SDS011;844;47.058;15.472;2022-12-29T15:56:44;19.53;;;15.60;;
1693;SDS011;844;47.058;15.472;2022-12-29T15:59:35;14.50;;;12.97;;
1693;SDS011;844;47.058;15.472;2022-12-29T16:02:14;18.93;;;15.40;;
1693;SDS011;844;47.058;15.472;2022-12-29T16:04:44;15.33;;;13.80;;
1693;SDS011;844;47.058;15.472;2022-12-29T16:07:34;16.17;;;14.20;;
1693;SDS011;844;47.058;15.472;2022-12-29T16:10:21;17.73;;;14.20;;